Time;durP1;ratioP1;P1;durP2;ratioP2;P2;SDS_P1;SDS_P2;PMS_P1;PMS_P2;Temp;Humidity;BMP_temperature;BMP_pressure;BME280_temperature;BME280_humidity;BME280_pressure;Samples;Min_cycle;Max_cycle;Signal;HPM_P1;HPM_P2
2022/03/30 00:00:29;;;;;;;0.50;0.50;;;;;;;2.51;100.00;100228.25;5044528;28;20537;-80
2022/03/30 00:03:04;;;;;;;0.40;0.40;;;;;;;2.46;100.00;100223.59;5047760;28;20060;-80
2022/03/30 00:05:32;;;;;;;0.47;0.47;;;;;;;2.51;100.00;100222.88;5054322;28;20049;-79
2022/03/30 00:08:06;;;;;;;0.50;0.50;;;;;;;2.45;100.00;100218.47;5043285;28;20061;-79
2022/03/30 00:10:40;;;;;;;0.50;0.50;;;;;;;2.43;100.00;100216.03;5044941;28;20045;-79
2022/03/30 00:13:08;;;;;;;0.60;0.60;;;;;;;2.40;100.00;100215.66;5043496;28;20049;-79
2022/03/30 00:15:43;;;;;;;0.50;0.50;;;;;;;2.39;100.00;100206.81;5054374;28;20052;-78
2022/03/30 00:18:11;;;;;;;0.52;0.52;;;;;;;2.34;100.00;100215.56;5047909;28;20053;-78
2022/03/30 00:20:39;;;;;;;0.50;0.50;;;;;;;2.27;100.00;100206.00;5047724;28;20045;-80
2022/03/30 00:23:13;;;;;;;0.40;0.40;;;;;;;2.23;100.00;100202.97;5041720;28;20522;-80
2022/03/30 00:25:46;;;;;;;0.40;0.40;;;;;;;2.24;100.00;100199.25;5042775;28;20049;-79
2022/03/30 00:28:19;;;;;;;0.50;0.50;;;;;;;2.20;100.00;100206.94;5061035;28;20049;-79
2022/03/30 00:30:49;;;;;;;0.50;0.50;;;;;;;2.14;100.00;100197.16;5048565;28;20057;-79
2022/03/30 00:33:17;;;;;;;0.47;0.47;;;;;;;2.09;100.00;100207.78;5046066;28;20044;-79
2022/03/30 00:35:50;;;;;;;0.50;0.50;;;;;;;2.05;100.00;100201.25;5050215;28;20049;-79
2022/03/30 00:38:23;;;;;;;0.52;0.52;;;;;;;2.08;100.00;100206.13;5046627;28;20037;-79
2022/03/30 00:40:57;;;;;;;0.52;0.52;;;;;;;2.00;100.00;100203.81;5060315;28;20045;-79
2022/03/30 00:43:30;;;;;;;0.50;0.50;;;;;;;1.98;100.00;100195.19;5048244;28;20059;-79
2022/03/30 00:46:05;;;;;;;0.50;0.50;;;;;;;1.99;100.00;100194.13;5044840;28;20049;-80
2022/03/30 00:48:38;;;;;;;0.60;0.60;;;;;;;1.96;100.00;100189.22;5043247;28;20052;-78
2022/03/30 00:51:11;;;;;;;0.60;0.60;;;;;;;2.00;100.00;100196.59;5041176;28;20060;-79
2022/03/30 00:53:44;;;;;;;0.50;0.50;;;;;;;2.02;100.00;100193.66;5040610;28;20116;-79
2022/03/30 00:56:12;;;;;;;0.60;0.60;;;;;;;2.00;100.00;100201.97;5052802;28;20045;-79
2022/03/30 00:58:45;;;;;;;0.70;0.70;;;;;;;2.00;100.00;100190.38;5042925;28;20391;-79
2022/03/30 01:01:21;;;;;;;0.60;0.60;;;;;;;2.06;100.00;100185.94;5040349;28;20052;-79
2022/03/30 01:03:50;;;;;;;0.50;0.50;;;;;;;2.04;100.00;100184.34;5045673;28;20041;-79
2022/03/30 01:06:23;;;;;;;0.52;0.52;;;;;;;2.00;100.00;100175.13;5041956;28;20045;-79
2022/03/30 01:08:56;;;;;;;0.50;0.50;;;;;;;2.08;100.00;100187.34;5036300;28;20490;-79
2022/03/30 01:11:30;;;;;;;0.60;0.60;;;;;;;2.08;100.00;100181.97;5050193;28;20485;-80
2022/03/30 01:13:58;;;;;;;0.70;0.70;;;;;;;2.05;100.00;100177.09;5054714;28;20049;-80
2022/03/30 01:16:30;;;;;;;0.60;0.60;;;;;;;2.07;100.00;100176.84;5049074;28;20057;-78
2022/03/30 01:19:07;;;;;;;0.68;0.68;;;;;;;2.12;100.00;100180.47;5043864;28;20079;-79
2022/03/30 01:21:43;;;;;;;0.60;0.60;;;;;;;2.15;100.00;100181.84;5039081;28;20033;-80
2022/03/30 01:24:17;;;;;;;0.70;0.70;;;;;;;2.13;100.00;100167.88;5042699;28;20041;-78
2022/03/30 01:26:50;;;;;;;0.65;0.65;;;;;;;2.13;100.00;100175.94;5050567;28;20048;-80
2022/03/30 01:32:26;;;;;;;0.60;0.60;;;;;;;2.11;100.00;100168.06;5048331;28;20052;-81
2022/03/30 01:34:55;;;;;;;0.77;0.77;;;;;;;2.15;100.00;100168.44;5038792;28;20057;-80
2022/03/30 01:37:32;;;;;;;0.60;0.60;;;;;;;2.14;100.00;100162.25;5034270;28;20056;-80
2022/03/30 01:40:03;;;;;;;0.60;0.60;;;;;;;2.11;100.00;100151.97;5046873;28;20060;-80
2022/03/30 01:42:36;;;;;;;0.65;0.65;;;;;;;2.16;100.00;100156.66;5030732;28;20401;-80
2022/03/30 01:45:11;;;;;;;0.60;0.60;;;;;;;2.14;100.00;100151.53;5047776;28;20508;-80
2022/03/30 01:47:54;;;;;;;0.60;0.60;;;;;;;2.13;100.00;100152.56;5050887;28;20567;-80
2022/03/30 01:50:29;;;;;;;0.60;0.60;;;;;;;2.08;100.00;100139.03;5042042;28;20052;-80
2022/03/30 01:53:04;;;;;;;0.70;0.70;;;;;;;2.14;100.00;100139.94;5043626;28;20896;-79
2022/03/30 01:55:37;;;;;;;0.68;0.68;;;;;;;2.12;100.00;100139.38;5036198;28;20402;-80
2022/03/30 01:58:11;;;;;;;0.65;0.65;;;;;;;2.13;100.00;100135.66;5039638;28;20053;-81
2022/03/30 02:00:45;;;;;;;0.70;0.70;;;;;;;2.14;100.00;100129.22;5048722;28;20760;-80
2022/03/30 02:03:19;;;;;;;0.60;0.60;;;;;;;2.06;100.00;100121.53;5035920;28;20049;-81
2022/03/30 02:05:47;;;;;;;0.60;0.60;;;;;;;2.16;100.00;100127.94;5042751;28;20056;-79
2022/03/30 02:08:16;;;;;;;0.65;0.65;;;;;;;2.10;100.00;100120.84;5041652;28;20064;-80
2022/03/30 02:10:49;;;;;;;0.60;0.60;;;;;;;2.09;100.00;100129.13;5035289;28;20049;-80
2022/03/30 02:13:23;;;;;;;0.70;0.70;;;;;;;2.18;100.00;100138.41;5043472;28;20045;-80
2022/03/30 02:15:51;;;;;;;0.60;0.60;;;;;;;2.22;100.00;100136.91;5046366;28;20041;-80
2022/03/30 02:18:24;;;;;;;0.70;0.70;;;;;;;2.20;100.00;100130.97;5044016;28;20379;-80
2022/03/30 02:20:57;;;;;;;0.80;0.80;;;;;;;2.19;100.00;100123.94;5040353;28;20053;-80
2022/03/30 02:23:26;;;;;;;0.75;0.73;;;;;;;2.17;100.00;100124.19;5045072;28;20069;-79
2022/03/30 02:25:55;;;;;;;0.80;0.80;;;;;;;2.07;100.00;100115.91;5041654;28;20409;-79
2022/03/30 02:28:23;;;;;;;0.70;0.70;;;;;;;2.15;100.00;100123.59;5060234;28;20045;-80
2022/03/30 02:30:56;;;;;;;0.73;0.73;;;;;;;2.11;100.00;100118.97;5052210;28;20052;-79
2022/03/30 02:33:24;;;;;;;0.85;0.85;;;;;;;2.14;100.00;100122.00;5054148;28;20052;-80
2022/03/30 02:35:57;;;;;;;0.70;0.70;;;;;;;2.07;100.00;100110.56;5048242;28;20045;-79
2022/03/30 02:38:31;;;;;;;0.80;0.80;;;;;;;2.04;100.00;100125.28;5044766;28;20045;-80
2022/03/30 02:41:01;;;;;;;0.80;0.80;;;;;;;2.01;100.00;100123.06;5060003;28;20068;-81
2022/03/30 02:43:35;;;;;;;0.80;0.80;;;;;;;2.07;100.00;100125.84;5055343;28;20044;-79
2022/03/30 02:46:04;;;;;;;0.80;0.80;;;;;;;1.99;100.00;100116.28;5051368;28;20049;-79
2022/03/30 02:48:38;;;;;;;0.90;0.90;;;;;;;2.09;100.00;100127.25;5042513;28;20500;-80
2022/03/30 02:51:11;;;;;;;0.70;0.70;;;;;;;2.14;100.00;100113.09;5044532;28;20045;-79
2022/03/30 02:53:46;;;;;;;0.88;0.88;;;;;;;2.14;100.00;100118.47;5050114;28;20053;-80
2022/03/30 02:56:14;;;;;;;0.85;0.85;;;;;;;2.11;100.00;100110.91;5052976;28;20040;-80
2022/03/30 02:58:47;;;;;;;0.70;0.70;;;;;;;2.10;100.00;100107.41;5049829;28;20799;-81
2022/03/30 03:01:20;;;;;;;0.80;0.80;;;;;;;2.08;100.00;100106.00;5053475;28;20049;-79
2022/03/30 03:03:48;;;;;;;0.70;0.70;;;;;;;2.15;100.00;100117.44;5045049;28;20040;-79
2022/03/30 03:06:22;;;;;;;0.80;0.80;;;;;;;2.11;100.00;100110.91;5048911;28;20044;-80
2022/03/30 03:08:57;;;;;;;0.88;0.88;;;;;;;2.12;100.00;100113.34;5039337;28;20076;-80
2022/03/30 03:11:30;;;;;;;0.80;0.80;;;;;;;2.01;100.00;100096.22;5059226;28;20397;-80
2022/03/30 03:13:58;;;;;;;0.85;0.85;;;;;;;2.15;100.00;100106.69;5051759;28;20433;-80
2022/03/30 03:16:32;;;;;;;0.90;0.90;;;;;;;2.10;100.00;100095.84;5051223;28;20052;-80
2022/03/30 03:19:06;;;;;;;0.80;0.80;;;;;;;2.10;100.00;100103.91;5046348;28;20060;-80
2022/03/30 03:21:39;;;;;;;1.05;1.00;;;;;;;2.02;100.00;100089.81;5043924;28;20481;-80
2022/03/30 03:24:08;;;;;;;0.90;0.90;;;;;;;2.15;100.00;100112.88;5049000;28;20063;-79
2022/03/30 03:26:41;;;;;;;1.00;1.00;;;;;;;2.18;100.00;100108.88;5037315;28;20398;-80
2022/03/30 03:29:09;;;;;;;0.90;0.90;;;;;;;2.18;100.00;100109.72;5064421;28;20052;-80
2022/03/30 03:31:38;;;;;;;0.90;0.90;;;;;;;2.20;100.00;100109.50;5047988;28;20048;-80
2022/03/30 03:34:12;;;;;;;1.10;1.10;;;;;;;2.16;100.00;100102.97;5043179;28;20046;-79
2022/03/30 03:36:45;;;;;;;1.08;1.08;;;;;;;2.10;100.00;100101.22;5040560;28;20044;-79
2022/03/30 03:39:19;;;;;;;1.00;1.00;;;;;;;2.06;100.00;100098.22;5042349;28;20057;-80
2022/03/30 03:41:52;;;;;;;0.88;0.88;;;;;;;2.05;100.00;100093.88;5052480;28;20045;-79
2022/03/30 03:44:25;;;;;;;0.90;0.90;;;;;;;2.11;100.00;100106.34;5053196;28;20753;-80
2022/03/30 03:46:58;;;;;;;1.20;1.20;;;;;;;2.06;100.00;100095.53;5040959;28;20037;-79
2022/03/30 03:49:32;;;;;;;1.10;1.10;;;;;;;2.04;100.00;100086.88;5050159;28;20497;-79
2022/03/30 03:52:06;;;;;;;1.20;1.20;;;;;;;2.04;100.00;100093.06;5037969;28;20045;-79
2022/03/30 03:54:35;;;;;;;1.30;1.20;;;;;;;2.07;100.00;100097.13;5041856;28;20048;-80
2022/03/30 03:57:08;;;;;;;1.10;1.10;;;;;;;1.96;100.00;100085.41;5045540;28;20037;-80
2022/03/30 03:59:42;;;;;;;1.15;1.15;;;;;;;2.03;100.00;100094.13;5049255;28;20045;-79
2022/03/30 04:02:15;;;;;;;1.20;1.20;;;;;;;2.04;100.00;100094.94;5043854;28;20056;-80
2022/03/30 04:04:44;;;;;;;1.40;1.30;;;;;;;2.02;100.00;100103.22;5038629;28;20044;-80
2022/03/30 04:07:17;;;;;;;1.25;1.25;;;;;;;2.00;100.00;100097.28;5042439;28;20106;-79
2022/03/30 04:09:51;;;;;;;1.17;1.17;;;;;;;2.01;100.00;100088.16;5046133;28;20041;-80
2022/03/30 04:12:21;;;;;;;1.35;1.33;;;;;;;1.98;100.00;100093.22;5048368;28;20156;-80
2022/03/30 04:14:55;;;;;;;1.88;1.77;;;;;;;1.98;100.00;100098.56;5057822;28;20489;-79
2022/03/30 04:17:23;;;;;;;1.70;1.60;;;;;;;2.00;100.00;100097.28;5042805;28;20056;-80
2022/03/30 04:19:56;;;;;;;1.65;1.55;;;;;;;1.96;100.00;100106.03;5046825;28;20056;-80
2022/03/30 04:22:30;;;;;;;1.90;1.80;;;;;;;1.98;100.00;100107.44;5050659;28;20381;-80
2022/03/30 04:25:05;;;;;;;1.65;1.55;;;;;;;1.92;100.00;100100.34;5043062;28;20050;-79
2022/03/30 04:27:45;;;;;;;2.00;1.90;;;;;;;1.81;100.00;100095.78;5041188;28;20401;-80
2022/03/30 04:30:14;;;;;;;2.28;2.17;;;;;;;1.78;100.00;100102.47;5051762;28;20045;-79
2022/03/30 04:32:48;;;;;;;2.63;2.50;;;;;;;1.79;100.00;100100.59;5048247;28;20386;-80
2022/03/30 04:35:18;;;;;;;2.75;2.55;;;;;;;1.87;100.00;100089.50;5043600;28;20045;-79
2022/03/30 04:37:46;;;;;;;;;;;;;;;1.96;100.00;100082.72;5042889;28;20041;-79
2022/03/30 04:40:20;;;;;;;;;;;;;;;2.01;100.00;100087.34;5048790;28;19940;-79
2022/03/30 04:42:48;;;;;;;;;;;;;;;2.05;100.00;100088.50;5033378;28;19922;-79
2022/03/30 04:45:22;;;;;;;;;;;;;;;2.01;100.00;100093.53;5034716;28;20378;-80
2022/03/30 04:47:55;;;;;;;;;;;;;;;1.95;100.00;100085.63;5043042;28;19924;-81
2022/03/30 04:50:23;;;;;;;;;;;;;;;2.00;100.00;100086.56;5048048;28;20470;-79
2022/03/30 04:52:52;;;;;;;;;;;;;;;2.00;100.00;100078.50;5050572;28;19925;-80
2022/03/30 04:55:27;;;;;;;;;;;;;;;2.04;100.00;100089.56;5045143;28;19925;-79
2022/03/30 04:57:55;;;;;;;;;;;;;;;2.06;100.00;100089.31;5052392;28;19928;-79
2022/03/30 05:00:28;;;;;;;;;;;;;;;2.10;100.00;100090.47;5043166;28;19921;-80
2022/03/30 05:02:55;;;;;;;;;;;;;;;2.07;100.00;100082.91;5049657;28;19924;-80
2022/03/30 05:05:28;;;;;;;;;;;;;;;2.02;100.00;100086.31;5043111;28;19928;-79
2022/03/30 05:08:01;;;;;;;;;;;;;;;2.07;100.00;100085.59;5040839;28;19932;-80
2022/03/30 05:10:35;;;;;;;;;;;;;;;2.09;100.00;100091.56;5044016;28;19924;-80
2022/03/30 05:13:08;;;;;;;;;;;;;;;2.08;100.00;100084.53;5043768;28;19928;-79
2022/03/30 05:15:36;;;;;;;;;;;;;;;2.04;100.00;100093.06;5050380;28;19925;-79
2022/03/30 05:18:11;;;;;;;;;;;;;;;2.00;100.00;100091.91;5044998;28;19921;-79
2022/03/30 05:20:44;;;;;;;;;;;;;;;1.97;100.00;100089.69;5046626;28;20277;-79
2022/03/30 05:23:12;;;;;;;;;;;;;;;2.10;100.00;100085.94;5046979;28;19921;-80
2022/03/30 05:25:42;;;;;;;;;;;;;;;2.14;100.00;100094.31;5048865;28;19920;-79
2022/03/30 05:28:15;;;;;;;;;;;;;;;2.22;100.00;100091.25;5046443;28;19921;-80
2022/03/30 05:30:48;;;;;;;;;;;;;;;2.22;100.00;100091.25;5047484;28;20289;-80
2022/03/30 05:33:21;;;;;;;;;;;;;;;2.14;100.00;100097.84;5040985;28;19929;-81
2022/03/30 05:35:50;;;;;;;;;;;;;;;2.17;100.00;100091.19;5042744;28;19928;-79
2022/03/30 05:38:24;;;;;;;;;;;;;;;2.23;100.00;100090.22;5044872;28;20342;-80
2022/03/30 05:40:58;;;;;;;;;;;;;;;2.26;100.00;100091.59;5044927;28;19921;-79
2022/03/30 05:43:26;;;;;;;;;;;;;;;2.25;100.00;100088.13;5044334;28;19924;-79
2022/03/30 05:45:54;;;;;;;;;;;;;;;2.14;100.00;100088.94;5035889;28;20421;-79
2022/03/30 05:48:27;;;;;;;;;;;;;;;2.22;100.00;100096.63;5041853;28;19925;-80
2022/03/30 05:51:00;;;;;;;;;;;;;;;2.25;100.00;100095.34;5047490;28;19920;-80
2022/03/30 05:53:28;;;;;;;;;;;;;;;2.26;100.00;100095.09;5040776;28;19921;-80
2022/03/30 05:56:02;;;;;;;;;;;;;;;2.31;100.00;100089.84;5043765;28;19928;-79
2022/03/30 05:58:35;;;;;;;;;;;;;;;2.33;100.00;100084.22;5034722;28;19925;-79
2022/03/30 06:01:08;;;;;;;;;;;;;;;2.13;100.00;100090.03;5043977;28;20366;-79
2022/03/30 06:03:40;;;;;;;;;;;;;;;2.11;100.00;100090.22;5037098;28;19943;-80
2022/03/30 06:06:14;;;;;;;;;;;;;;;2.13;100.00;100090.03;5052125;28;19921;-79
2022/03/30 06:08:49;;;;;;;;;;;;;;;2.06;100.00;100092.00;5037786;28;19951;-79
2022/03/30 06:11:23;;;;;;;;;;;;;;;2.05;100.00;100091.19;5041824;28;20376;-80
2022/03/30 06:13:58;;;;;;;;;;;;;;;2.12;100.00;100091.06;5040580;28;19921;-79
2022/03/30 06:16:26;;;;;;;;;;;;;;;2.06;100.00;100090.16;5044691;28;20355;-79
2022/03/30 06:18:54;;;;;;;;;;;;;;;2.02;100.00;100095.16;5031480;28;19929;-80
2022/03/30 06:21:28;;;;;;;;;;;;;;;2.07;100.00;100097.13;5037180;28;19928;-80
2022/03/30 06:23:56;;;;;;;;;;;;;;;1.96;100.00;100098.81;5041497;28;20360;-80
2022/03/30 06:26:26;;;;;;;;;;;;;;;2.15;100.00;100106.69;5038959;28;19924;-80
2022/03/30 06:28:59;;;;;;;;;;;;;;;2.26;100.00;100110.41;5040340;28;19928;-80
2022/03/30 06:31:32;;;;;;;;;;;;;;;2.34;100.00;100102.78;5035916;28;19928;-80
2022/03/30 06:34:05;;;;;;;;;;;;;;;2.35;100.00;100100.91;5037140;28;19921;-80
2022/03/30 06:36:33;;;;;;;;;;;;;;;2.41;100.00;100099.94;5044540;28;20273;-79
2022/03/30 06:39:06;;;;;;;;;;;;;;;2.47;100.00;100104.38;5040578;28;20429;-80
2022/03/30 06:41:42;;;;;;;;;;;;;;;2.43;100.00;100111.28;5036831;28;19921;-80
2022/03/30 06:44:16;;;;;;;;;;;;;;;2.35;100.00;100104.41;5042400;28;19936;-80
2022/03/30 06:46:50;;;;;;;;;;;;;;;2.24;100.00;100107.13;5043297;28;19925;-79
2022/03/30 06:49:23;;;;;;;;;;;;;;;2.42;100.00;100096.22;5036468;28;19929;-80
2022/03/30 06:51:56;;;;;;;;;;;;;;;2.41;100.00;100094.56;5043826;28;19936;-80
2022/03/30 06:54:29;;;;;;;;;;;;;;;2.36;100.00;100089.09;5048924;28;19929;-80
2022/03/30 06:56:59;;;;;;;;;;;;;;;2.49;100.00;100098.75;5043505;28;19925;-80
2022/03/30 06:59:32;;;;;;;;;;;;;;;2.46;100.00;100100.06;5037612;28;20292;-80
2022/03/30 07:02:05;;;;;;;;;;;;;;;2.50;100.00;100095.00;5040954;28;19932;-80
2022/03/30 07:04:38;;;;;;;;;;;;;;;2.59;100.00;100090.06;5035389;28;19921;-80
2022/03/30 07:10:16;;;;;;;;;;;;;;;2.53;100.00;100092.66;5045998;28;19921;-78
2022/03/30 07:12:47;;;;;;;;;;;;;;;2.47;100.00;100100.84;5044538;28;19921;-80
2022/03/30 07:15:16;;;;;;;;;;;;;;;2.61;100.00;100104.91;5042821;28;19932;-81
2022/03/30 07:17:50;;;;;;;;;;;;;;;2.53;100.00;100097.22;5046274;28;19920;-80
2022/03/30 07:20:23;;;;;;;;;;;;;;;2.37;100.00;100099.59;5038942;28;19936;-80
2022/03/30 07:22:58;;;;;;;;;;;;;;;2.35;100.00;100090.97;5038199;28;19924;-81
2022/03/30 07:25:26;;;;;;;;;;;;;;;2.43;100.00;100095.16;5044039;28;19921;-80
2022/03/30 07:28:02;;;;;;;;;;;;;;;2.64;100.00;100096.34;5033064;28;19932;-80
2022/03/30 07:30:30;;;;;;;;;;;;;;;2.63;100.00;100089.34;5040791;28;19931;-79
2022/03/30 07:32:59;;;;;;;;;;;;;;;2.80;100.00;100097.41;5039296;28;19924;-80
2022/03/30 07:35:33;;;;;;;;;;;;;;;2.69;100.00;100092.91;5041918;28;20364;-80
2022/03/30 07:38:06;;;;;;;;;;;;;;;2.77;100.00;100092.53;5052434;28;19925;-80
2022/03/30 07:40:39;;;;;;;;;;;;;;;2.86;100.00;100091.09;5043919;28;19925;-79
2022/03/30 07:43:14;;;;;;;;;;;;;;;2.95;100.00;100093.38;5039636;28;19925;-80
2022/03/30 07:45:47;;;;;;;;;;;;;;;3.00;100.00;100093.47;5024303;28;19929;-81
2022/03/30 07:48:20;;;;;;;;;;;;;;;3.04;100.00;100095.41;5034197;28;19925;-79
2022/03/30 07:50:53;;;;;;;;;;;;;;;2.88;100.00;100088.94;5027052;28;19936;-79
2022/03/30 07:53:26;;;;;;;;;;;;;;;2.91;100.00;100092.22;5018544;28;19928;-80
2022/03/30 07:55:55;;;;;;;;;;;;;;;2.87;100.00;100094.56;5021137;28;20704;-80
2022/03/30 07:58:25;;;;;;;;;;;;;;;2.76;100.00;100090.88;5019185;28;19929;-81
2022/03/30 08:00:54;;;;;;;;;;;;;;;2.62;100.00;100089.59;5018106;28;19945;-81
2022/03/30 08:03:27;;;;;;;;;;;;;;;2.72;100.00;100093.25;5020796;28;19928;-80
2022/03/30 08:06:02;;;;;;;;;;;;;;;2.92;100.00;100085.81;5027867;28;19942;-80
2022/03/30 08:08:37;;;;;;;;;;;;;;;2.87;100.00;100081.13;5023507;28;19935;-80
2022/03/30 08:11:10;;;;;;;;;;;;;;;3.01;100.00;100085.16;5028103;28;19929;-82
2022/03/30 08:13:44;;;;;;;;;;;;;;;3.18;100.00;100074.38;5023011;28;19928;-81
2022/03/30 08:16:17;;;;;;;;;;;;;;;3.14;100.00;100078.63;5032491;28;19991;-81
2022/03/30 08:18:49;;;;;;;;;;;;;;;3.23;100.00;100077.16;5027795;28;19935;-80
2022/03/30 08:24:13;;;;;;;;;;;;;;;3.32;100.00;100079.44;5028402;28;20274;-81
2022/03/30 08:26:46;;;;;;;;;;;;;;;3.24;100.00;100080.66;5026654;28;19932;-80
2022/03/30 08:29:20;;;;;;;;;;;;;;;3.39;100.00;100086.25;5026847;28;19929;-81
2022/03/30 08:31:53;;;;;;;;;;;;;;;3.38;100.00;100078.44;5020833;28;19929;-80
2022/03/30 08:34:26;;;;;;;;;;;;;;;3.34;100.00;100083.50;5025278;28;19925;-81
2022/03/30 08:36:59;;;;;;;;;;;;;;;3.49;100.00;100085.59;5023486;28;19928;-81
2022/03/30 08:39:33;;;;;;;;;;;;;;;3.46;100.00;100085.28;5027594;28;19924;-79
2022/03/30 08:42:02;;;;;;;;;;;;;;;3.46;100.00;100083.38;5032633;28;19935;-81
2022/03/30 08:44:37;;;;;;;;;;;;;;;3.39;100.00;100088.94;5024713;28;19971;-81
2022/03/30 08:47:11;;;;;;;;;;;;;;;3.32;100.00;100087.50;5023524;28;19944;-80
2022/03/30 08:49:39;;;;;;;;;;;;;;;3.43;100.00;100083.91;5027005;28;20478;-80
2022/03/30 08:52:12;;;;;;;;;;;;;;;3.51;100.00;100096.13;5022890;28;19935;-81
2022/03/30 08:54:42;;;;;;;;;;;;;;;3.54;100.00;100092.94;5025193;28;19928;-79
2022/03/30 08:57:10;;;;;;;;;;;;;;;3.51;100.00;100093.44;5022978;28;19929;-82
2022/03/30 08:59:40;;;;;;;;;;;;;;;3.48;100.00;100094.75;5019745;28;19936;-81
2022/03/30 09:02:13;;;;;;;;;;;;;;;3.49;100.00;100093.66;5035613;28;19929;-81
2022/03/30 09:04:45;;;;;;;;;;;;;;;3.61;100.00;100082.00;5023096;28;19924;-80
2022/03/30 09:07:20;;;;;;;;;;;;;;;3.81;100.00;100084.13;5022339;28;19936;-82
2022/03/30 09:09:53;;;;;;;;;;;;;;;3.84;100.00;100091.69;5019768;28;19929;-81
2022/03/30 09:12:26;;;;;;;;;;;;;;;3.67;100.00;100089.06;5020806;28;19928;-82
2022/03/30 09:15:02;;;;;;;;;;;;;;;3.47;100.00;100081.53;5020769;28;19929;-78
2022/03/30 09:17:37;;;;;;;3.50;3.30;;;;;;;3.72;100.00;100073.00;5020117;28;20389;-83
2022/03/30 09:20:14;;;;;;;;;;;;;;;3.95;100.00;100077.31;5024966;28;21125;-80
2022/03/30 09:22:47;;;;;;;;;;;;;;;4.01;100.00;100076.31;5027756;28;19928;-82
2022/03/30 09:25:16;;;;;;;;;;;;;;;4.02;100.00;100075.25;5024259;28;19928;-79
2022/03/30 09:27:46;;;;;;;4.32;4.03;;;;;;;4.03;100.00;100066.13;5022832;28;19929;-81
2022/03/30 09:30:21;;;;;;;;;;;;;;;4.09;100.00;100075.88;5020676;28;20045;-80
2022/03/30 09:32:56;;;;;;;4.32;4.03;;;;;;;4.22;100.00;100076.56;5024105;28;19935;-82
2022/03/30 09:35:33;;;;;;;5.35;4.95;;;;;;;4.32;100.00;100076.66;5029337;28;20057;-82
2022/03/30 09:38:09;;;;;;;5.53;5.13;;;;;;;4.34;100.00;100089.88;5026948;28;20527;-83
2022/03/30 09:40:45;;;;;;;5.20;4.80;;;;;;;4.39;100.00;100076.44;5030470;28;20573;-82
2022/03/30 09:43:19;;;;;;;4.95;4.65;;;;;;;4.42;100.00;100081.34;5023047;28;20056;-82
2022/03/30 09:46:05;;;;;;;;;;;;;;;4.57;100.00;100075.28;5025692;28;20577;-79
2022/03/30 09:48:39;;;;;;;;;;;;;;;4.42;100.00;100074.06;5028238;28;21180;-80
2022/03/30 09:51:12;;;;;;;;;;;;;;;4.62;100.00;100072.66;5031819;28;19925;-80
2022/03/30 09:53:45;;;;;;;3.45;3.25;;;;;;;4.67;100.00;100067.31;5022594;28;19929;-82
2022/03/30 09:56:15;;;;;;;;;;;;;;;4.53;100.00;100071.47;5027251;28;20632;-81
2022/03/30 09:58:48;;;;;;;;;;;;;;;4.64;100.00;100075.09;5020651;28;19929;-81
2022/03/30 10:01:23;;;;;;;;;;;;;;;4.72;100.00;100066.53;5020647;28;19929;-81
2022/03/30 10:03:57;;;;;;;;;;;;;;;4.74;100.00;100069.81;5025173;28;20339;-81
2022/03/30 10:06:32;;;;;;;;;;;;;;;4.79;100.00;100072.53;5028434;28;19940;-82
2022/03/30 10:09:05;;;;;;;;;;;;;;;4.54;100.00;100067.72;5024702;28;19929;-82
2022/03/30 10:11:37;;;;;;;;;;;;;;;4.48;100.00;100060.66;5022330;28;19936;-82
2022/03/30 10:14:12;;;;;;;;;;;;;;;4.56;100.00;100063.72;5026655;28;19928;-81
2022/03/30 10:16:46;;;;;;;;;;;;;;;4.48;100.00;100060.66;5018888;28;19936;-81
2022/03/30 10:19:19;;;;;;;;;;;;;;;4.50;100.00;100062.03;5021248;28;19929;-81
2022/03/30 10:21:58;;;;;;;;;;;;;;;4.36;100.00;100058.09;5016026;28;19928;-80
2022/03/30 10:24:38;;;;;;;;;;;;;;;4.31;100.00;100055.34;5016890;28;19943;-80
2022/03/30 10:27:13;;;;;;;;;;;;;;;4.40;100.00;100060.03;5016370;28;20385;-81
2022/03/30 10:29:49;;;;;;;;;;;;;;;4.51;100.00;100049.38;5024720;28;19928;-81
2022/03/30 10:32:24;;;;;;;;;;;;;;;4.62;100.00;100053.78;5015111;28;20643;-82
2022/03/30 10:35:00;;;;;;;;;;;;;;;4.40;100.00;100049.25;5022758;28;19933;-81
2022/03/30 10:37:29;;;;;;;;;;;;;;;4.45;100.00;100048.50;5022424;28;19929;-81
2022/03/30 10:40:06;;;;;;;;;;;;;;;4.59;100.00;100046.22;5023394;28;21886;-80
2022/03/30 10:42:57;;;;;;;;;;;;;;;4.57;100.00;100048.34;5017840;28;20305;-82
2022/03/30 10:45:25;;;;;;;;;;;;;;;4.81;100.00;100034.56;5021691;28;19929;-82
2022/03/30 10:48:07;;;;;;;;;;;;;;;4.86;100.00;100037.25;5027255;28;20420;-82
2022/03/30 10:50:36;;;;;;;;;;;;;;;5.03;100.00;100035.25;5017472;28;19928;-82
2022/03/30 10:53:27;;;;;;;;;;;;;;;5.09;100.00;100034.19;5029225;28;20570;-81
2022/03/30 10:56:15;;;;;;;;;;;;;;;5.22;100.00;100024.03;5025392;28;19928;-81
2022/03/30 10:59:03;;;;;;;;;;;;;;;5.06;100.00;100025.84;5020358;28;19936;-82
2022/03/30 11:01:38;;;;;;;;;;;;;;;5.04;100.00;100014.47;5024802;28;19928;-82
2022/03/30 11:04:13;;;;;;;;;;;;;;;5.15;100.00;100020.75;5024052;28;19928;-82
2022/03/30 11:06:47;;;;;;;;;;;;;;;5.05;100.00;100013.41;5028469;28;19936;-81
2022/03/30 11:09:22;;;;;;;;;;;;;;;5.18;100.00;100015.66;5021561;28;20541;-81
2022/03/30 11:11:57;;;;;;;;;;;;;;;5.37;100.00;100015.22;5026731;28;19936;-82
2022/03/30 11:14:29;;;;;;;;;;;;;;;5.36;100.00;100013.59;5026087;28;19929;-81
2022/03/30 11:17:02;;;;;;;;;;;;;;;5.46;100.00;100005.56;5024281;28;19928;-82
2022/03/30 11:19:50;;;;;;;;;;;;;;;5.60;100.00;100006.69;5026142;28;19924;-81
2022/03/30 11:22:26;;;;;;;;;;;;;;;5.37;100.00;100001.72;5031151;28;20301;-83
2022/03/30 11:25:06;;;;;;;;;;;;;;;5.52;100.00;100001.00;5027250;28;19929;-81
2022/03/30 11:27:39;;;;;;;;;;;;;;;5.58;100.00;100006.16;5022664;28;19982;-83
2022/03/30 11:30:14;;;;;;;;;;;;;;;5.48;100.00;99989.09;5022744;28;19928;-82
2022/03/30 11:33:08;;;;;;;;;;;;;;;5.46;100.00;99994.78;5023171;28;19929;-81
2022/03/30 11:35:43;;;;;;;;;;;;;;;5.54;100.00;100001.56;5027533;28;19925;-81
2022/03/30 11:38:23;;;;;;;;;;;;;;;5.43;100.00;99998.00;5028928;28;19928;-82
2022/03/30 11:40:53;;;;;;;;;;;;;;;5.52;100.00;99996.41;5026808;28;19936;-81
2022/03/30 11:43:23;;;;;;;;;;;;;;;5.51;100.00;99996.66;5031273;28;19951;-82
2022/03/30 11:45:57;;;;;;;;;;;;;;;5.48;100.00;99998.00;4997915;28;19928;-80
2022/03/30 11:48:37;;;;;;;;;;;;;;;5.30;100.00;100001.97;5026362;28;19929;-82
2022/03/30 11:51:05;;;;;;;;;;;;;;;5.38;100.00;99997.97;5025190;28;19928;-81
2022/03/30 11:53:35;;;;;;;;;;;;;;;5.34;100.00;99996.88;5025084;28;20698;-81
2022/03/30 11:56:10;;;;;;;;;;;;;;;5.42;100.00;99993.69;5023068;28;20593;-82
2022/03/30 11:58:38;;;;;;;;;;;;;;;5.23;100.00;99993.28;5034882;28;19928;-82
2022/03/30 12:01:12;;;;;;;;;;;;;;;5.50;100.00;99993.19;5026365;28;19928;-82
2022/03/30 12:03:50;;;;;;;;;;;;;;;5.54;100.00;99988.06;5025464;28;20671;-80
2022/03/30 12:06:23;;;;;;;;;;;;;;;5.57;100.00;99988.34;5026845;28;19929;-81
2022/03/30 12:08:58;;;;;;;;;;;;;;;5.62;100.00;99991.06;5020220;28;20670;-80
2022/03/30 12:11:36;;;;;;;;;;;;;;;5.50;100.00;99993.19;5025651;28;19925;-80
2022/03/30 12:14:05;;;;;;;;;;;;;;;5.51;100.00;99992.09;5025545;28;19929;-82
2022/03/30 12:16:35;;;;;;;;;;;;;;;5.48;100.00;99989.91;5029653;28;20301;-81
2022/03/30 12:19:08;;;;;;;;;;;;;;;5.42;100.00;99989.06;5034296;28;19929;-82
2022/03/30 12:21:38;;;;;;;;;;;;;;;5.31;100.00;99986.59;5027386;28;19928;-81
2022/03/30 12:24:16;;;;;;;;;;;;;;;5.32;100.00;99991.75;5025174;28;19929;-81
2022/03/30 12:26:53;;;;;;;;;;;;;;;5.39;100.00;99991.50;5030181;28;20582;-83
2022/03/30 12:29:30;;;;;;;;;;;;;;;5.30;100.00;99991.16;5027926;28;19929;-81
2022/03/30 12:32:04;;;;;;;;;;;;;;;5.32;100.00;99996.31;5029347;28;19929;-83
2022/03/30 12:34:34;;;;;;;;;;;;;;;5.40;100.00;99993.94;5028230;28;20724;-82
2022/03/30 12:37:07;;;;;;;;;;;;;;;5.41;100.00;99990.19;5027063;28;20541;-83
2022/03/30 12:39:43;;;;;;;;;;;;;;;5.32;100.00;99980.94;5025345;28;19929;-80
2022/03/30 12:42:22;;;;;;;;;;;;;;;5.33;100.00;99979.03;5024282;28;20404;-82
2022/03/30 12:44:56;;;;;;;;;;;;;;;5.33;100.00;99985.28;5030093;28;19936;-83